WetterOnline ( https://www.wetteronline.de )

Wetter aktuell Malte

Aktuelles Wetter: Frontone (574m)

6-stündlich | Neueste Meldungen
Ortszeit Temperatur Wetter
Do, 21.10. 20:00 16.4° C wolkig
Do, 21.10. 14:00 16.2° C wolkig
Do, 21.10. 8:00 13.0° C bedeckt
Do, 21.10. 2:00 12.8° C leicht bewölkt
Mi, 20.10. 20:00 14.6° C leicht bewölkt
Mi, 20.10. 14:00 17.4° C leicht bewölkt
Mi, 20.10. 8:00 11.0° C wolkenlos
Mi, 20.10. 2:00 12.0° C wolkenlos
Ortszeit Temperatur Wetter
Do, 21.10. 20:00 16.4° C wolkig
Do, 21.10. 19:55 16° C leicht bewölkt
Do, 21.10. 19:00 16.4° C wolkig
Do, 21.10. 18:55 16° C leicht bewölkt
Do, 21.10. 18:00 16.4° C wolkig
Do, 21.10. 17:55 16° C leicht bewölkt
Do, 21.10. 17:00 16.6° C wolkig
Do, 21.10. 16:55 17° C leicht bewölkt
Do, 21.10. 16:00 16.0° C wolkig
Ortszeit Relative Feuchte Sichtweite
Do, 21.10. 20:00 73% 30 km
Do, 21.10. 14:00 68% 35 km
Do, 21.10. 8:00 81% 25 km
Do, 21.10. 2:00 74% 25 km
Mi, 20.10. 20:00 66% 25 km
Mi, 20.10. 14:00 55% 40 km
Mi, 20.10. 8:00 72% 30 km
Mi, 20.10. 2:00 65% 25 km
Ortszeit Relative Feuchte Sichtweite
Do, 21.10. 20:00 73% 30 km
Do, 21.10. 19:55 77% >10 km
Do, 21.10. 19:00 72% 35 km
Do, 21.10. 18:55 72% >10 km
Do, 21.10. 18:00 67% 40 km
Do, 21.10. 17:55 68% >10 km
Do, 21.10. 17:00 69% 40 km
Do, 21.10. 16:55 68% >10 km
Do, 21.10. 16:00 71% 30 km
Ortszeit Niederschlagsmenge Niederschlagsart
Do, 21.10. 20:00 0.0 l/m2 in 12 Std. -
Do, 21.10. 14:00 0.0 l/m2 in 6 Std. -
Do, 21.10. 8:00 0.0 l/m2 in 12 Std. -
Do, 21.10. 2:00 0.0 l/m2 in 6 Std. -
Mi, 20.10. 20:00 0.0 l/m2 in 12 Std. -
Mi, 20.10. 14:00 0.0 l/m2 in 6 Std. -
Mi, 20.10. 8:00 0.0 l/m2 in 12 Std. -
Mi, 20.10. 2:00 0.0 l/m2 in 6 Std. -
Ortszeit Niederschlagsmenge Niederschlagsart
Do, 21.10. 20:00 keine Meldung -
Do, 21.10. 19:55 keine Meldung -
Do, 21.10. 19:00 keine Meldung -
Do, 21.10. 18:55 keine Meldung -
Do, 21.10. 18:00 keine Meldung -
Do, 21.10. 17:55 keine Meldung -
Do, 21.10. 17:00 keine Meldung -
Do, 21.10. 16:55 keine Meldung -
Do, 21.10. 16:00 keine Meldung -
Ortszeit Stärke Spitze Richtung
km/h Bft. km/h Grad Sektor
Do, 21.10. 20:00 13 3 - 230° SW
Do, 21.10. 14:00 30 5 - 250° W
Do, 21.10. 8:00 11 2 - 210° SW
Do, 21.10. 2:00 9 2 - 250° W
Mi, 20.10. 20:00 6 1 - 210° SW
Mi, 20.10. 14:00 13 3 - 220° SW
Mi, 20.10. 8:00 0 0 - - -
Mi, 20.10. 2:00 0 0 - - -
Ortszeit Stärke Spitze Richtung
km/h Bft. km/h Grad Sektor
Do, 21.10. 20:00 13 3 - 230° SW
Do, 21.10. 19:55 13 3 43 230° SW
Do, 21.10. 19:00 15 3 - 200° S
Do, 21.10. 18:55 15 3 37 200° S
Do, 21.10. 18:00 7 2 - 160° S
Do, 21.10. 17:55 7 2 - 160° S
Do, 21.10. 17:00 11 2 - 230° SW
Do, 21.10. 16:55 11 2 33 230° SW
Do, 21.10. 16:00 19 3 - 200° S
Ortszeit Untergrenze Bedeckung Gattung
total tief tief mittel hoch
Do, 21.10. 20:00 750 m 7/8 3/8 Cu As Cs
Do, 21.10. 14:00 750 m 7/8 2/8 Cu Ac Cs
Do, 21.10. 8:00 660 m 8/8 8/8 Cu - -
Do, 21.10. 2:00 810 m 3/8 3/8 Sc - Ci
Mi, 20.10. 20:00 2700 m 5/8 1/8 - Ac Ci
Mi, 20.10. 14:00 900 m 5/8 1/8 Cu - Ci
Mi, 20.10. 8:00 - 0/8 0/8 - - -
Mi, 20.10. 2:00 - 0/8 0/8 - - -
Ortszeit Bedeckungsgrad in Achtel und Wolkenuntergrenze
Do, 21.10. 20:00 3(750m) 4(2400m) 5(6000m)
Do, 21.10. 19:55 3-4(750m)
Do, 21.10. 19:00 2(750m) 5(2400m)
Do, 21.10. 18:55 1-2(750m)
Do, 21.10. 18:00 3(750m) 4(2400m)
Do, 21.10. 17:55 3-4(750m)
Do, 21.10. 17:00 3(750m) 5(2400m)
Do, 21.10. 16:55 3-4(750m)
Do, 21.10. 16:00 3(750m) 5(2400m)
Ortszeit Stationsdruck (hPa) Tendenz (hPa in 3 Std.)
Do, 21.10. 20:00 947 + 0,6
Do, 21.10. 14:00 947 - 1,1
Do, 21.10. 8:00 950 - 2,0
Do, 21.10. 2:00 954 - 1,0
Mi, 20.10. 20:00 955 - 1,3
Mi, 20.10. 14:00 958 - 0,3
Mi, 20.10. 8:00 958 - 0,1
Mi, 20.10. 2:00 959 0,0
Ortszeit Stationsdruck (hPa) Tendenz (hPa in 3 Std.)
Do, 21.10. 20:00 947 + 0,6
Do, 21.10. 19:55 - keine Meldung
Do, 21.10. 19:00 946 0,0
Do, 21.10. 18:55 - keine Meldung
Do, 21.10. 18:00 947 + 1,4
Do, 21.10. 17:55 - keine Meldung
Do, 21.10. 17:00 946 - 0,7
Do, 21.10. 16:55 - keine Meldung
Do, 21.10. 16:00 946 - 2,0
Ortszeit Schneehöhe (cm)
Do, 21.10. 20:00 -
Do, 21.10. 14:00 -
Do, 21.10. 8:00 0
Do, 21.10. 2:00 -
Mi, 20.10. 20:00 -
Mi, 20.10. 14:00 -
Mi, 20.10. 8:00 0
Mi, 20.10. 2:00 -
Ortszeit Schneehöhe (cm)
Do, 21.10. 20:00 -
Do, 21.10. 19:55 -
Do, 21.10. 19:00 -
Do, 21.10. 18:55 -
Do, 21.10. 18:00 -
Do, 21.10. 17:55 -
Do, 21.10. 17:00 -
Do, 21.10. 16:55 -
Do, 21.10. 16:00 -
Link zu dieser Seite / Seite empfehlen

Das Wetter in ...